createdAt,value
2023-04-13T00:00:46.953Z,8.29
2023-04-13T00:03:17.597Z,8.24
2023-04-13T00:05:47.656Z,8.23
2023-04-13T00:08:17.267Z,8.24
2023-04-13T00:10:46.268Z,8.21
2023-04-13T00:13:15.104Z,8.18
2023-04-13T00:15:44.231Z,8.00
2023-04-13T00:18:12.577Z,7.88
2023-04-13T00:20:43.609Z,8.05
2023-04-13T00:23:18.080Z,8.03
2023-04-13T00:25:46.211Z,8.00
2023-04-13T00:28:16.644Z,7.94
2023-04-13T00:30:44.844Z,7.91
2023-04-13T00:33:13.042Z,7.86
2023-04-13T00:35:43.665Z,7.85
2023-04-13T00:38:11.664Z,7.84
2023-04-13T00:40:39.745Z,7.64
2023-04-13T00:43:07.810Z,7.74
2023-04-13T00:45:39.198Z,7.84
2023-04-13T00:48:10.996Z,7.83
2023-04-13T00:50:40.586Z,7.80
2023-04-13T00:53:13.852Z,7.75
2023-04-13T00:55:43.217Z,7.76
2023-04-13T00:58:13.527Z,7.81
2023-04-13T01:00:43.590Z,7.76
2023-04-13T01:03:12.471Z,7.72
2023-04-13T01:05:50.643Z,7.81
2023-04-13T01:08:29.145Z,7.82
2023-04-13T01:11:06.057Z,7.83
2023-04-13T01:13:42.202Z,7.87
2023-04-13T01:16:19.386Z,7.84
2023-04-13T01:18:53.352Z,7.86
2023-04-13T01:21:27.880Z,7.92
2023-04-13T01:24:18.035Z,7.89
2023-04-13T01:27:06.679Z,7.94
2023-04-13T01:29:37.951Z,7.92
2023-04-13T01:32:07.579Z,7.90
2023-04-13T01:34:36.906Z,7.94
2023-04-13T01:37:08.968Z,7.94
2023-04-13T01:39:38.670Z,7.99
2023-04-13T01:42:32.866Z,7.96
2023-04-13T01:45:03.320Z,8.02
2023-04-13T01:47:32.154Z,7.99
2023-04-13T01:50:30.076Z,8.06
2023-04-13T01:53:15.587Z,8.07
2023-04-13T01:55:45.697Z,7.96
2023-04-13T01:58:15.828Z,7.96
2023-04-13T02:00:50.218Z,8.00
2023-04-13T02:03:18.404Z,8.02
2023-04-13T02:05:46.498Z,7.89
2023-04-13T02:08:15.757Z,7.95
2023-04-13T02:10:47.510Z,7.92
2023-04-13T02:13:15.701Z,7.93
2023-04-13T02:15:44.687Z,7.88
2023-04-13T02:18:14.641Z,7.86
2023-04-13T02:20:45.878Z,7.86
2023-04-13T02:23:15.844Z,7.86
2023-04-13T02:25:48.074Z,7.86
2023-04-13T02:28:18.009Z,7.78
2023-04-13T02:30:47.882Z,7.73
2023-04-13T02:33:17.267Z,7.74
2023-04-13T02:35:45.685Z,7.67
2023-04-13T02:38:15.709Z,7.65
2023-04-13T02:40:47.909Z,7.63
2023-04-13T02:43:16.124Z,7.59
2023-04-13T02:45:44.265Z,7.57
2023-04-13T02:48:17.072Z,7.45
2023-04-13T02:50:45.168Z,7.47
2023-04-13T02:53:19.430Z,7.45
2023-04-13T02:55:53.747Z,7.52
2023-04-13T02:58:23.482Z,7.50
2023-04-13T03:00:58.076Z,7.35
2023-04-13T03:03:27.594Z,7.48
2023-04-13T03:05:55.596Z,7.54
2023-04-13T03:08:31.654Z,7.52
2023-04-13T03:11:10.214Z,7.62
2023-04-13T03:13:43.376Z,7.65
2023-04-13T03:16:12.327Z,7.67
2023-04-13T03:18:42.564Z,7.67
2023-04-13T03:21:12.824Z,7.64
2023-04-13T03:23:48.377Z,7.62
2023-04-13T03:26:18.170Z,7.56
2023-04-13T03:28:47.285Z,7.55
2023-04-13T03:31:15.802Z,7.60
2023-04-13T03:33:45.315Z,7.60
2023-04-13T03:36:13.496Z,7.52
2023-04-13T03:38:42.255Z,7.59
2023-04-13T03:41:11.436Z,7.53
2023-04-13T03:43:39.958Z,7.54
2023-04-13T03:46:13.304Z,7.45
2023-04-13T03:48:42.125Z,7.50
2023-04-13T03:51:14.222Z,7.43
2023-04-13T03:54:00.992Z,7.37
2023-04-13T03:56:29.695Z,7.18
2023-04-13T03:58:58.321Z,7.27
2023-04-13T04:01:28.396Z,7.31
2023-04-13T04:03:58.213Z,7.32
2023-04-13T04:06:31.252Z,7.39
2023-04-13T04:09:13.230Z,7.37
2023-04-13T04:11:45.632Z,7.38
2023-04-13T04:14:16.017Z,7.40
2023-04-13T04:16:53.494Z,7.36
2023-04-13T04:19:21.756Z,7.41
2023-04-13T04:21:53.037Z,7.46
2023-04-13T04:24:23.001Z,7.46
2023-04-13T04:26:58.126Z,7.52
2023-04-13T04:29:34.016Z,7.52
2023-04-13T04:32:11.132Z,7.54
2023-04-13T04:34:41.117Z,7.64
2023-04-13T04:37:20.289Z,7.71
2023-04-13T04:40:00.275Z,7.76
2023-04-13T04:42:28.784Z,7.80
2023-04-13T04:44:58.692Z,7.80
2023-04-13T04:47:30.734Z,7.86
2023-04-13T04:50:17.932Z,7.78
2023-04-13T04:52:51.242Z,7.96
2023-04-13T04:55:23.001Z,8.02
2023-04-13T04:57:51.687Z,8.03
2023-04-13T05:00:22.355Z,8.14
2023-04-13T05:03:02.190Z,8.25
2023-04-13T05:05:30.789Z,8.26
2023-04-13T05:08:04.164Z,8.17
2023-04-13T05:10:32.653Z,8.44
2023-04-13T05:13:00.787Z,8.51
2023-04-13T05:15:28.994Z,8.58
2023-04-13T05:17:57.934Z,8.66
2023-04-13T05:20:28.882Z,8.62
2023-04-13T05:23:03.870Z,8.75
2023-04-13T05:25:34.436Z,8.78
2023-04-13T05:28:07.276Z,8.80
2023-04-13T05:30:35.385Z,8.89
2023-04-13T05:33:09.191Z,9.04
2023-04-13T05:35:40.123Z,9.06
2023-04-13T05:38:11.079Z,9.18
2023-04-13T05:40:39.424Z,9.43
2023-04-13T05:43:07.971Z,9.63
2023-04-13T05:45:41.642Z,9.60
2023-04-13T05:48:14.071Z,9.78
2023-04-13T05:50:44.349Z,10.00
2023-04-13T05:53:14.759Z,10.14
2023-04-13T05:55:48.409Z,10.42
2023-04-13T05:58:19.023Z,10.61
2023-04-13T06:00:49.654Z,10.81
2023-04-13T06:03:27.526Z,10.99
2023-04-13T06:05:55.895Z,11.05
2023-04-13T06:08:32.698Z,11.26
2023-04-13T06:11:01.722Z,11.38
2023-04-13T06:13:29.774Z,11.40
2023-04-13T06:15:58.472Z,11.16
2023-04-13T06:18:26.841Z,11.42
2023-04-13T06:20:55.747Z,11.40
2023-04-13T06:23:25.230Z,11.46
2023-04-13T06:25:57.157Z,11.56
2023-04-13T06:28:39.569Z,11.55
2023-04-13T06:31:09.172Z,11.50
2023-04-13T06:33:39.281Z,11.63
2023-04-13T06:36:08.341Z,11.80
2023-04-13T06:38:38.857Z,11.90
2023-04-13T06:41:10.905Z,11.92
2023-04-13T06:43:41.290Z,12.17
2023-04-13T06:46:28.568Z,12.30
2023-04-13T06:49:02.207Z,12.37
2023-04-13T06:51:33.047Z,12.33
2023-04-13T06:54:03.045Z,12.44
2023-04-13T06:56:31.317Z,12.61
2023-04-13T06:59:02.641Z,12.53
2023-04-13T07:01:32.947Z,12.56
2023-04-13T07:04:02.569Z,12.77
2023-04-13T07:06:32.592Z,12.92
2023-04-13T07:09:04.148Z,13.02
2023-04-13T07:11:33.150Z,13.05
2023-04-13T07:14:03.907Z,13.15
2023-04-13T07:16:32.231Z,13.35
2023-04-13T07:19:01.062Z,13.52
2023-04-13T07:21:31.997Z,13.48
2023-04-13T07:24:07.608Z,13.59
2023-04-13T07:26:37.888Z,13.80
2023-04-13T07:29:12.192Z,13.70
2023-04-13T07:31:41.521Z,14.03
2023-04-13T07:34:09.550Z,13.84
2023-04-13T07:36:43.844Z,14.09
2023-04-13T07:39:16.360Z,14.38
2023-04-13T07:41:48.499Z,14.46
2023-04-13T07:44:22.004Z,14.37
2023-04-13T07:46:50.296Z,14.68
2023-04-13T07:49:19.366Z,14.56
2023-04-13T07:51:48.227Z,14.72
2023-04-13T07:54:18.719Z,14.97
2023-04-13T07:56:49.177Z,14.92
2023-04-13T07:59:20.191Z,15.05
2023-04-13T08:01:49.262Z,15.24
2023-04-13T08:04:17.725Z,15.41
2023-04-13T08:06:47.178Z,15.27
2023-04-13T08:09:15.391Z,15.55
2023-04-13T08:11:44.925Z,15.65
2023-04-13T08:14:13.032Z,15.62
2023-04-13T08:16:42.124Z,15.69
2023-04-13T08:19:12.239Z,15.60
2023-04-13T08:21:46.620Z,15.80
2023-04-13T08:24:14.675Z,15.90
2023-04-13T08:26:45.638Z,15.87
2023-04-13T08:29:15.537Z,16.22
2023-04-13T08:31:43.716Z,16.01
2023-04-13T08:34:12.928Z,16.18
2023-04-13T08:36:41.160Z,16.55
2023-04-13T08:39:10.708Z,16.45
2023-04-13T08:41:45.383Z,16.81
2023-04-13T08:44:17.699Z,16.70
2023-04-13T08:46:51.242Z,17.14
2023-04-13T08:49:27.166Z,17.08
2023-04-13T08:52:15.093Z,17.45
2023-04-13T08:54:48.223Z,17.54
2023-04-13T08:57:25.148Z,17.43
2023-04-13T08:59:54.968Z,17.73
2023-04-13T09:02:26.488Z,17.96
2023-04-13T09:05:02.375Z,18.21
2023-04-13T09:07:34.857Z,18.17
2023-04-13T09:10:09.719Z,18.35
2023-04-13T09:12:37.777Z,18.10
2023-04-13T09:15:09.233Z,18.14
2023-04-13T09:17:45.873Z,18.16
2023-04-13T09:20:17.339Z,18.49
2023-04-13T09:22:45.854Z,18.76
2023-04-13T09:25:24.720Z,18.74
2023-04-13T09:27:53.200Z,18.97
2023-04-13T09:30:24.932Z,18.79
2023-04-13T09:33:05.349Z,18.85
2023-04-13T09:35:34.477Z,18.30
2023-04-13T09:38:02.900Z,18.89
2023-04-13T09:40:31.673Z,18.88
2023-04-13T09:43:02.343Z,18.86
2023-04-13T09:45:37.578Z,18.88
2023-04-13T09:48:07.906Z,19.22
2023-04-13T09:50:37.073Z,19.52
2023-04-13T09:53:06.291Z,19.69
2023-04-13T09:55:35.634Z,19.65
2023-04-13T09:58:13.779Z,19.62
2023-04-13T10:00:45.678Z,18.77
2023-04-13T10:03:15.068Z,18.98
2023-04-13T10:05:58.539Z,19.64
2023-04-13T10:11:01.456Z,19.77
2023-04-13T10:13:35.502Z,20.14
2023-04-13T10:16:32.842Z,20.00
2023-04-13T10:19:06.464Z,19.97
2023-04-13T10:21:39.628Z,19.91
2023-04-13T10:24:12.122Z,20.16
2023-04-13T10:26:42.023Z,20.41
2023-04-13T10:29:11.715Z,20.64
2023-04-13T10:31:47.782Z,21.16
2023-04-13T10:34:25.461Z,21.29
2023-04-13T10:36:56.072Z,21.13
2023-04-13T10:39:27.992Z,21.18
2023-04-13T10:42:03.858Z,21.73
2023-04-13T10:44:42.877Z,21.61
2023-04-13T10:47:12.710Z,21.23
2023-04-13T10:49:41.815Z,21.77
2023-04-13T10:52:11.778Z,22.02
2023-04-13T10:54:41.274Z,22.17
2023-04-13T10:57:11.301Z,21.50
2023-04-13T10:59:57.078Z,22.06
2023-04-13T11:02:32.351Z,22.41
2023-04-13T11:05:02.007Z,22.19
2023-04-13T11:07:30.183Z,22.62
2023-04-13T11:12:30.489Z,22.75
2023-04-13T11:14:58.558Z,23.08
2023-04-13T11:17:28.279Z,23.21
2023-04-13T11:19:57.947Z,23.21
2023-04-13T11:22:28.099Z,22.75
2023-04-13T11:25:09.080Z,22.91
2023-04-13T11:27:38.064Z,23.19
2023-04-13T11:30:09.678Z,23.15
2023-04-13T11:32:43.067Z,22.89
2023-04-13T11:35:14.092Z,22.59
2023-04-13T11:37:43.982Z,22.56
2023-04-13T11:40:15.133Z,21.64
2023-04-13T11:42:45.184Z,21.58
2023-04-13T11:45:15.915Z,20.98
2023-04-13T11:47:46.276Z,19.96
2023-04-13T11:50:16.661Z,20.40
2023-04-13T11:52:46.634Z,21.41
2023-04-13T11:55:23.386Z,20.62
2023-04-13T11:57:53.058Z,20.13
2023-04-13T12:00:26.210Z,22.07
2023-04-13T12:05:32.499Z,23.43
2023-04-13T12:08:04.385Z,22.85
2023-04-13T12:10:41.402Z,23.90
2023-04-13T12:13:33.550Z,24.34
2023-04-13T12:16:11.210Z,24.72
2023-04-13T12:18:47.434Z,23.89
2023-04-13T12:21:19.978Z,25.12
2023-04-13T12:23:55.736Z,25.79
2023-04-13T12:27:15.222Z,26.46
2023-04-13T12:29:13.988Z,26.41
2023-04-13T12:31:44.494Z,27.45
2023-04-13T12:34:13.973Z,26.43
2023-04-13T12:36:42.084Z,27.70
2023-04-13T12:39:10.315Z,28.27
2023-04-13T12:41:38.378Z,27.82
2023-04-13T12:44:06.711Z,28.54
2023-04-13T12:46:34.751Z,27.11
2023-04-13T12:49:03.388Z,27.29
2023-04-13T12:51:32.887Z,28.20
2023-04-13T12:54:00.936Z,28.01
2023-04-13T12:56:28.981Z,28.39
2023-04-13T12:58:57.095Z,28.42
2023-04-13T13:01:25.525Z,28.02
2023-04-13T13:03:53.700Z,28.07
2023-04-13T13:06:21.947Z,28.16
2023-04-13T13:08:51.708Z,28.26
2023-04-13T13:11:19.795Z,28.07
2023-04-13T13:13:47.809Z,27.33
2023-04-13T13:16:16.209Z,27.69
2023-04-13T13:18:50.413Z,27.52
2023-04-13T13:21:20.108Z,26.19
2023-04-13T13:23:48.225Z,25.94
2023-04-13T13:28:48.694Z,25.56
2023-04-13T13:31:16.780Z,25.41
2023-04-13T13:33:45.102Z,25.13
2023-04-13T13:36:14.463Z,24.00
2023-04-13T13:38:43.368Z,24.28
2023-04-13T13:41:11.728Z,23.96
2023-04-13T13:43:41.565Z,23.52
2023-04-13T13:46:09.627Z,23.65
2023-04-13T13:48:39.886Z,22.97
2023-04-13T13:51:39.946Z,23.01
2023-04-13T13:54:10.262Z,22.67
2023-04-13T13:56:38.452Z,22.73
2023-04-13T13:59:08.732Z,21.82
2023-04-13T14:01:37.905Z,21.88
2023-04-13T14:04:06.829Z,21.68
2023-04-13T14:06:34.922Z,21.34
2023-04-13T14:09:03.551Z,20.93
2023-04-13T14:11:31.968Z,21.34
2023-04-13T14:14:11.123Z,21.63
2023-04-13T14:16:48.124Z,20.84
2023-04-13T14:19:16.148Z,20.74
2023-04-13T14:21:44.218Z,20.56
2023-04-13T14:24:12.250Z,21.32
2023-04-13T14:26:41.759Z,21.43
2023-04-13T14:29:10.232Z,21.57
2023-04-13T14:31:38.394Z,21.84
2023-04-13T14:34:07.947Z,21.76
2023-04-13T14:36:35.954Z,20.87
2023-04-13T14:39:05.182Z,21.37
2023-04-13T14:41:33.332Z,19.89
2023-04-13T14:44:01.477Z,20.31
2023-04-13T14:46:29.494Z,21.02
2023-04-13T14:48:57.657Z,21.28
2023-04-13T14:51:27.433Z,21.22
2023-04-13T14:53:56.466Z,21.29
2023-04-13T14:56:26.243Z,21.32
2023-04-13T14:58:54.497Z,20.55
2023-04-13T15:01:24.384Z,20.83
2023-04-13T15:03:53.960Z,20.43
2023-04-13T15:06:22.605Z,19.72
2023-04-13T15:08:52.833Z,19.52
2023-04-13T15:11:20.877Z,19.92
2023-04-13T15:13:49.518Z,19.95
2023-04-13T15:16:17.580Z,19.87
2023-04-13T15:18:45.706Z,19.57
2023-04-13T15:21:13.740Z,20.22
2023-04-13T15:23:42.245Z,20.01
2023-04-13T15:26:17.289Z,20.17
2023-04-13T15:28:45.693Z,20.27
2023-04-13T15:31:14.053Z,20.27
2023-04-13T15:33:42.319Z,20.20
2023-04-13T15:36:14.765Z,20.25
2023-04-13T15:38:44.475Z,20.34
2023-04-13T15:41:14.151Z,20.43
2023-04-13T15:43:44.154Z,20.17
2023-04-13T15:46:12.497Z,20.27
2023-04-13T15:48:40.921Z,20.15
2023-04-13T15:51:09.417Z,20.14
2023-04-13T15:53:37.655Z,20.23
2023-04-13T15:56:09.020Z,20.26
2023-04-13T15:58:38.705Z,19.72
2023-04-13T16:01:09.125Z,17.94
2023-04-13T16:03:37.792Z,18.10
2023-04-13T16:06:06.858Z,17.20
2023-04-13T16:08:35.018Z,16.10
2023-04-13T16:11:03.137Z,15.70
2023-04-13T16:13:48.027Z,15.74
2023-04-13T16:16:18.887Z,15.13
2023-04-13T16:18:46.901Z,15.73
2023-04-13T16:21:19.260Z,15.65
2023-04-13T16:23:47.574Z,15.18
2023-04-13T16:26:15.768Z,14.83
2023-04-13T16:28:44.099Z,14.26
2023-04-13T16:31:12.316Z,14.19
2023-04-13T16:33:42.168Z,13.99
2023-04-13T16:36:11.117Z,14.11
2023-04-13T16:38:40.432Z,14.16
2023-04-13T16:41:08.556Z,14.19
2023-04-13T16:43:36.632Z,14.40
2023-04-13T16:46:05.746Z,14.22
2023-04-13T16:48:33.865Z,13.97
2023-04-13T16:51:04.699Z,14.01
2023-04-13T16:53:33.037Z,13.96
2023-04-13T16:56:01.101Z,13.50
2023-04-13T16:58:29.154Z,14.07
2023-04-13T17:00:57.543Z,13.60
2023-04-13T17:03:25.812Z,13.87
2023-04-13T17:05:55.067Z,13.73
2023-04-13T17:08:24.831Z,13.43
2023-04-13T17:10:53.357Z,13.37
2023-04-13T17:13:21.846Z,13.83
2023-04-13T17:15:50.010Z,14.07
2023-04-13T17:18:18.245Z,12.93
2023-04-13T17:20:54.332Z,13.17
2023-04-13T17:23:23.373Z,13.47
2023-04-13T17:25:56.376Z,13.38
2023-04-13T17:28:25.558Z,13.45
2023-04-13T17:30:54.050Z,13.32
2023-04-13T17:33:24.353Z,13.26
2023-04-13T17:35:54.291Z,13.56
2023-04-13T17:38:22.354Z,13.55
2023-04-13T17:40:51.114Z,13.19
2023-04-13T17:43:20.657Z,13.67
2023-04-13T17:45:48.759Z,12.92
2023-04-13T17:48:16.772Z,13.28
2023-04-13T17:50:44.890Z,13.61
2023-04-13T17:53:13.019Z,12.89
2023-04-13T17:55:41.066Z,13.74
2023-04-13T17:58:10.805Z,13.30
2023-04-13T18:00:40.268Z,13.85
2023-04-13T18:03:09.398Z,13.23
2023-04-13T18:05:37.744Z,13.42
2023-04-13T18:08:06.394Z,13.18
2023-04-13T18:10:34.489Z,13.18
2023-04-13T18:13:02.565Z,13.45
2023-04-13T18:15:30.752Z,13.29
2023-04-13T18:18:00.214Z,12.89
2023-04-13T18:20:28.454Z,13.23
2023-04-13T18:22:56.496Z,12.38
2023-04-13T18:25:24.574Z,12.04
2023-04-13T18:27:52.578Z,12.20
2023-04-13T18:30:21.062Z,12.33
2023-04-13T18:32:51.557Z,12.46
2023-04-13T18:35:21.480Z,12.42
2023-04-13T18:37:49.605Z,12.20
2023-04-13T18:40:17.721Z,11.68
2023-04-13T18:42:50.037Z,11.61
2023-04-13T18:45:18.388Z,11.63
2023-04-13T18:47:46.548Z,11.62
2023-04-13T18:50:14.753Z,11.53
2023-04-13T18:52:44.198Z,11.35
2023-04-13T18:55:12.328Z,11.62
2023-04-13T18:57:41.742Z,11.80
2023-04-13T19:00:11.730Z,11.78
2023-04-13T19:02:40.733Z,11.55
2023-04-13T19:05:12.222Z,11.71
2023-04-13T19:07:42.444Z,11.80
2023-04-13T19:10:12.437Z,12.02
2023-04-13T19:12:40.443Z,12.02
2023-04-13T19:15:09.276Z,11.21
2023-04-13T19:17:37.339Z,11.57
2023-04-13T19:20:10.032Z,10.93
2023-04-13T19:22:38.331Z,10.99
2023-04-13T19:25:14.081Z,11.74
2023-04-13T19:27:44.794Z,11.98
2023-04-13T19:30:14.252Z,11.33
2023-04-13T19:32:44.751Z,11.74
2023-04-13T19:35:13.748Z,11.97
2023-04-13T19:37:42.402Z,11.44
2023-04-13T19:40:13.633Z,11.44
2023-04-13T19:42:44.544Z,11.65
2023-04-13T19:45:14.149Z,11.50
2023-04-13T19:47:42.498Z,11.20
2023-04-13T19:50:12.568Z,11.44
2023-04-13T19:52:42.459Z,11.49
2023-04-13T19:55:11.297Z,11.76
2023-04-13T19:57:42.381Z,11.28
2023-04-13T20:00:20.810Z,11.39
2023-04-13T20:02:50.881Z,11.11
2023-04-13T20:05:20.944Z,11.24
2023-04-13T20:07:49.143Z,11.84
2023-04-13T20:10:17.421Z,11.30
2023-04-13T20:12:45.506Z,11.31
2023-04-13T20:15:15.235Z,11.86
2023-04-13T20:17:43.295Z,11.10
2023-04-13T20:20:12.110Z,11.18
2023-04-13T20:22:40.310Z,11.27
2023-04-13T20:25:11.539Z,11.38
2023-04-13T20:27:42.360Z,10.98
2023-04-13T20:30:11.960Z,11.62
2023-04-13T20:32:41.413Z,11.36
2023-04-13T20:35:10.479Z,11.50
2023-04-13T20:37:38.607Z,11.65
2023-04-13T20:40:10.877Z,12.38
2023-04-13T20:42:41.908Z,11.84
2023-04-13T20:45:12.594Z,11.93
2023-04-13T20:47:42.634Z,12.55
2023-04-13T20:50:12.071Z,12.01
2023-04-13T20:52:42.068Z,11.89
2023-04-13T20:55:12.042Z,12.44
2023-04-13T20:57:42.176Z,12.32
2023-04-13T21:00:15.552Z,12.78
2023-04-13T21:02:46.832Z,12.48
2023-04-13T21:05:15.103Z,11.90
2023-04-13T21:07:46.141Z,11.40
2023-04-13T21:10:15.628Z,10.98
2023-04-13T21:12:43.721Z,11.02
2023-04-13T21:15:12.578Z,11.36
2023-04-13T21:17:40.722Z,11.34
2023-04-13T21:20:12.765Z,11.42
2023-04-13T21:22:40.748Z,10.86
2023-04-13T21:25:09.163Z,11.01
2023-04-13T21:27:37.339Z,11.11
2023-04-13T21:30:06.535Z,10.86
2023-04-13T21:32:34.610Z,10.60
2023-04-13T21:35:02.720Z,10.46
2023-04-13T21:37:32.076Z,10.81
2023-04-13T21:40:00.826Z,11.70
2023-04-13T21:42:28.910Z,10.99
2023-04-13T21:44:57.421Z,11.12
2023-04-13T21:47:25.433Z,10.97
2023-04-13T21:49:53.560Z,11.85
2023-04-13T21:52:21.695Z,11.56
2023-04-13T21:54:51.800Z,11.50
2023-04-13T21:57:19.880Z,12.26
2023-04-13T21:59:47.928Z,11.77
2023-04-13T22:02:16.022Z,11.56
2023-04-13T22:04:44.135Z,11.71
2023-04-13T22:07:12.240Z,11.02
2023-04-13T22:09:40.541Z,11.43
2023-04-13T22:12:11.129Z,11.90
2023-04-13T22:14:39.247Z,11.58
2023-04-13T22:17:07.277Z,11.12
2023-04-13T22:19:35.272Z,11.16
2023-04-13T22:22:03.237Z,10.94
2023-04-13T22:24:31.286Z,11.35
2023-04-13T22:26:59.266Z,11.71
2023-04-13T22:29:28.599Z,12.03
2023-04-13T22:31:56.748Z,11.62
2023-04-13T22:34:27.144Z,11.77
2023-04-13T22:36:55.295Z,11.43
2023-04-13T22:39:23.336Z,12.01
2023-04-13T22:41:51.361Z,12.35
2023-04-13T22:44:19.393Z,12.31
2023-04-13T22:46:48.811Z,11.94
2023-04-13T22:49:16.870Z,12.68
2023-04-13T22:51:45.007Z,12.58
2023-04-13T22:54:13.163Z,12.14
2023-04-13T22:56:41.253Z,11.77
2023-04-13T22:59:09.253Z,12.24
2023-04-13T23:01:37.341Z,12.32
2023-04-13T23:04:06.983Z,12.28
2023-04-13T23:06:36.091Z,12.29
2023-04-13T23:09:04.366Z,12.15
2023-04-13T23:11:32.367Z,12.03
2023-04-13T23:14:00.685Z,12.64
2023-04-13T23:16:28.869Z,12.68
2023-04-13T23:18:57.193Z,12.49
2023-04-13T23:21:27.771Z,12.45
2023-04-13T23:23:55.842Z,12.74
2023-04-13T23:26:23.917Z,12.89
2023-04-13T23:28:52.003Z,12.93
2023-04-13T23:31:20.280Z,12.97
2023-04-13T23:33:48.389Z,12.95
2023-04-13T23:36:16.468Z,13.09
2023-04-13T23:38:46.097Z,12.87
2023-04-13T23:41:14.100Z,12.93
2023-04-13T23:43:42.072Z,12.86
2023-04-13T23:46:10.124Z,12.91
2023-04-13T23:48:38.209Z,12.98
2023-04-13T23:51:06.362Z,12.93
2023-04-13T23:53:34.339Z,13.00
2023-04-13T23:56:03.782Z,13.10
2023-04-13T23:58:31.795Z,13.12
